Time;durP1;ratioP1;P1;durP2;ratioP2;P2;SDS_P1;SDS_P2;PMS_P1;PMS_P2;Temp;Humidity;BMP_temperature;BMP_pressure;BME280_temperature;BME280_humidity;BME280_pressure;Samples;Min_cycle;Max_cycle;Signal;HPM_P1;HPM_P2
2022/11/24 00:00:29;;;;;;;;;22.00;20.25;;;;;11.65;60.70;100043.09;146605;622;46916;-75
2022/11/24 00:03:30;;;;;;;;;22.50;19.75;;;;;11.59;61.38;100043.81;146603;577;46020;-75
2022/11/24 00:06:42;;;;;;;;;18.75;14.75;;;;;11.59;60.99;100040.28;146603;569;46012;-71
2022/11/24 00:09:39;;;;;;;;;19.50;15.50;;;;;11.59;61.49;100043.81;146608;571;46020;-71
2022/11/24 00:12:33;;;;;;;;;17.25;16.50;;;;;11.61;61.42;100046.44;146603;606;47012;-71
2022/11/24 00:15:30;;;;;;;;;17.00;14.50;;;;;11.64;61.43;100054.34;146607;583;46010;-71
2022/11/24 00:18:28;;;;;;;;;12.75;12.00;;;;;11.69;61.40;100050.19;146601;611;47915;-71
2022/11/24 00:21:31;;;;;;;;;12.00;11.00;;;;;8.89;60.28;99556.91;146607;623;46010;-78
2022/11/24 00:24:27;;;;;;;;;14.75;13.50;;;;;11.81;61.36;100061.03;146604;698;46915;-76
2022/11/24 00:27:35;;;;;;;;;6.75;6.25;;;;;11.84;60.11;100057.63;146611;614;46021;-76
2022/11/24 00:30:37;;;;;;;;;6.50;5.00;;;;;11.85;60.66;100060.34;146609;595;46016;-76
2022/11/24 00:33:32;;;;;;;;;3.75;3.75;;;;;11.88;60.16;100055.25;146605;628;46010;-76
2022/11/24 00:36:27;;;;;;;;;3.50;3.50;;;;;11.91;60.41;100057.97;146613;569;46016;-78
2022/11/24 00:39:21;;;;;;;;;5.25;4.25;;;;;11.94;60.39;100055.47;146619;669;45020;-78
2022/11/24 00:42:28;;;;;;;;;4.00;4.00;;;;;11.93;60.27;100050.19;146612;565;46916;-79
2022/11/24 00:45:21;;;;;;;;;3.75;3.00;;;;;11.87;60.44;100052.59;146615;596;46020;-79
2022/11/24 00:48:21;;;;;;;;;2.50;2.25;;;;;11.80;60.70;100057.53;146610;633;46016;-74
2022/11/24 00:51:29;;;;;;;;;5.75;5.25;;;;;11.73;60.39;100062.47;146614;590;47014;-75
2022/11/24 00:54:36;;;;;;;;;4.50;1.00;;;;;11.37;60.89;100000.59;146613;571;46016;-74
2022/11/24 00:58:03;;;;;;;;;;;;;;;;;;;;;
2022/11/24 01:01:03;;;;;;;;;4.50;3.50;;;;;11.74;60.78;100059.94;146607;605;46016;-77
2022/11/24 01:04:15;;;;;;;;;2.25;1.00;;;;;11.77;60.18;100065.25;146603;641;46021;-76
2022/11/24 01:07:08;;;;;;;;;3.75;3.75;;;;;11.78;60.53;100063.53;146611;657;46016;-77
2022/11/24 01:10:00;;;;;;;;;3.50;3.50;;;;;11.77;60.71;100062.66;146615;565;46031;-77
2022/11/24 01:13:08;;;;;;;;;4.75;3.25;;;;;11.78;60.70;100055.72;146610;653;46017;-76
2022/11/24 01:16:06;;;;;;;;;3.25;3.00;;;;;11.78;60.75;100068.72;146615;718;46020;-77
2022/11/24 01:19:21;;;;;;;;;2.00;2.00;;;;;11.75;60.09;100050.44;146610;600;47014;-77
2022/11/24 01:22:13;;;;;;;;;5.00;4.00;;;;;11.73;60.87;100065.06;146616;645;46010;-75
2022/11/24 01:25:09;;;;;;;;;7.75;7.25;;;;;11.75;60.92;100061.69;146612;593;46017;-74
2022/11/24 01:28:02;;;;;;;;;7.25;4.75;;;;;11.78;60.77;100059.22;146618;666;46020;-75
2022/11/24 01:31:02;;;;;;;;;3.75;3.00;;;;;11.86;60.37;100059.50;146612;647;46016;-74
2022/11/24 01:34:03;;;;;;;;;1.00;0.00;;;;;11.93;59.94;100058.91;146604;569;46021;-77
2022/11/24 01:37:12;;;;;;;;;1.75;1.00;;;;;12.01;59.92;100059.16;146611;571;46916;-77
2022/11/24 01:40:04;;;;;;;;;0.25;0.25;;;;;12.08;59.87;100053.31;146614;584;47015;-78
2022/11/24 01:43:07;;;;;;;;;1.75;1.00;;;;;12.14;59.88;100055.25;146608;573;46016;-73
2022/11/24 01:46:37;;;;;;;;;2.00;1.00;;;;;12.19;59.12;100057.19;146616;613;46020;-74
2022/11/24 01:49:53;;;;;;;;;1.75;1.75;;;;;12.24;58.12;100058.25;146613;631;46915;-75
2022/11/24 01:52:57;;;;;;;;;0.75;0.75;;;;;12.29;59.02;100060.09;146617;668;46010;-75
2022/11/24 01:55:55;;;;;;;;;1.00;0.50;;;;;12.29;59.35;100060.97;146611;577;46013;-77
2022/11/24 01:59:04;;;;;;;;;2.00;2.00;;;;;9.36;58.67;99555.22;146616;704;46020;-76
2022/11/24 02:02:01;;;;;;;;;3.00;2.00;;;;;12.19;59.85;100064.09;146610;614;46016;-73
2022/11/24 02:05:09;;;;;;;;;1.75;1.75;;;;;12.08;59.86;100071.53;146603;611;46014;-72
2022/11/24 02:08:08;;;;;;;;;1.50;1.50;;;;;11.92;60.25;100064.91;146610;635;46016;-73
2022/11/24 02:11:01;;;;;;;;;1.33;1.00;;;;;11.82;60.87;100072.31;146619;582;46021;-72
2022/11/24 02:14:09;;;;;;;;;1.75;1.50;;;;;11.73;61.04;100067.66;146609;694;46012;-76
2022/11/24 02:17:26;;;;;;;;;1.50;1.50;;;;;8.71;60.09;99554.47;146616;701;46032;-74
2022/11/24 02:20:25;;;;;;;;;1.75;1.50;;;;;11.53;61.54;100070.41;146611;593;46012;-74
2022/11/24 02:23:48;;;;;;;;;2.00;1.25;;;;;11.43;60.81;100068.31;146616;609;47010;-75
2022/11/24 02:26:58;;;;;;;;;1.50;1.50;;;;;11.34;61.24;100070.56;146609;626;46017;-75
2022/11/24 02:30:01;;;;;;;;;1.75;1.00;;;;;8.44;61.27;99590.41;146617;644;46020;-75
2022/11/24 02:33:26;;;;;;;;;;;;;;;;;;;;;
2022/11/24 02:36:29;;;;;;;;;1.50;1.00;;;;;11.12;62.60;100066.28;146606;578;47014;-75
2022/11/24 02:39:26;;;;;;;;;2.50;2.25;;;;;11.05;63.08;100059.94;146612;616;46016;-74
2022/11/24 02:42:24;;;;;;;;;4.00;3.50;;;;;10.96;62.85;100069.97;146619;623;46020;-78
2022/11/24 02:45:27;;;;;;;;;2.75;2.75;;;;;10.88;63.50;100055.81;146611;653;47012;-76
2022/11/24 02:48:20;;;;;;;;;5.25;2.00;;;;;10.79;63.31;100065.84;146614;565;46021;-79
2022/11/24 02:51:23;;;;;;;;;5.00;2.00;;;;;10.71;63.84;100070.69;146608;583;46016;-79
2022/11/24 02:54:28;;;;;;;;;;;;;;;;;;;;;
2022/11/24 02:57:30;;;;;;;;;2.50;2.50;;;;;10.64;64.26;100066.09;146610;662;46014;-78
2022/11/24 03:00:29;;;;;;;;;3.00;2.25;;;;;10.34;64.29;100016.47;146614;614;46014;-75
2022/11/24 03:03:34;;;;;;;;;4.75;3.50;;;;;10.61;63.36;100068.56;146611;597;46016;-72
2022/11/24 03:06:42;;;;;;;;;6.25;4.75;;;;;10.56;64.17;100068.41;146602;563;46029;-71
2022/11/24 03:09:43;;;;;;;;;3.50;3.50;;;;;10.58;64.09;100073.63;146610;612;46014;-72
2022/11/24 03:12:37;;;;;;;;;8.00;4.50;;;;;10.60;64.18;100075.47;146616;680;46010;-71
2022/11/24 03:15:48;;;;;;;;;7.00;5.75;;;;;10.54;63.83;100069.16;146612;669;46016;-70
2022/11/24 03:18:47;;;;;;;;;7.50;6.75;;;;;10.44;64.50;100073.06;146614;633;46014;-77
2022/11/24 03:22:02;;;;;;;;;;;;;;;;;;;;;
2022/11/24 03:25:21;;;;;;;;;10.25;7.50;;;;;10.36;64.71;100082.22;146615;603;46010;-75
2022/11/24 03:28:15;;;;;;;;;5.25;5.25;;;;;10.34;64.95;100086.44;146611;569;46014;-78
2022/11/24 03:31:15;;;;;;;;;10.00;6.25;;;;;10.34;64.93;100082.19;146616;600;46010;-73
2022/11/24 03:34:10;;;;;;;;;6.50;5.25;;;;;10.38;65.15;100075.41;146613;574;46016;-72
2022/11/24 03:37:10;;;;;;;;;8.25;5.50;;;;;10.39;64.94;100078.06;146603;571;46014;-72
2022/11/24 03:40:20;;;;;;;;;8.75;6.50;;;;;10.38;64.46;100078.00;146611;576;47012;-72
2022/11/24 03:43:18;;;;;;;;;9.50;8.00;;;;;10.35;65.42;100081.34;146617;589;47010;-72
2022/11/24 03:46:25;;;;;;;;;7.75;6.25;;;;;10.30;65.29;100088.03;146611;596;46017;-76
2022/11/24 03:49:18;;;;;;;;;7.75;7.00;;;;;10.29;65.36;100094.06;146617;589;47010;-76
2022/11/24 03:52:32;;;;;;;;;5.50;5.50;;;;;7.23;64.31;99579.94;146614;623;46016;-75
2022/11/24 03:55:37;;;;;;;;;12.75;11.00;;;;;10.12;65.07;100101.09;146615;596;46021;-74
2022/11/24 03:58:32;;;;;;;;;6.75;6.00;;;;;10.01;66.40;100102.31;146603;592;47010;-77
2022/11/24 04:01:39;;;;;;;;;7.00;5.50;;;;;9.92;65.87;100097.63;146618;590;47011;-77
2022/11/24 04:04:34;;;;;;;;;5.00;3.25;;;;;9.90;66.57;100098.34;146611;578;46038;-75
2022/11/24 04:07:32;;;;;;;;;3.00;2.00;;;;;9.86;66.93;100099.94;146603;567;47010;-75
2022/11/24 04:10:35;;;;;;;;;7.25;5.75;;;;;9.85;65.95;100103.34;146610;584;46016;-74
2022/11/24 04:13:45;;;;;;;;;;;;;;;;;;;;;
2022/11/24 04:16:43;;;;;;;;;4.50;3.75;;;;;9.91;66.00;100113.97;146611;573;46013;-75
2022/11/24 04:19:49;;;;;;;;;4.50;4.00;;;;;9.89;65.72;100110.44;146615;595;46020;-76
2022/11/24 04:22:58;;;;;;;;;3.00;2.75;;;;;6.84;65.04;99591.81;146612;633;46016;-76
2022/11/24 04:26:01;;;;;;;;;4.75;3.75;;;;;9.70;66.57;100118.19;146617;589;46020;-76
2022/11/24 04:29:13;;;;;;;;;5.00;5.00;;;;;9.61;67.30;100116.06;146612;599;46016;-75
2022/11/24 04:32:23;;;;;;;;;5.75;4.00;;;;;9.60;66.58;100118.63;146614;584;47021;-74
2022/11/24 04:35:16;;;;;;;;;4.50;4.00;;;;;9.60;66.91;100116.03;146611;707;46012;-74
2022/11/24 04:38:08;;;;;;;;;5.50;3.25;;;;;9.65;66.66;100123.16;146604;570;46011;-74
2022/11/24 04:41:15;;;;;;;;;3.50;2.75;;;;;6.66;65.74;99612.41;146614;574;46016;-74
2022/11/24 04:44:21;;;;;;;;;3.50;3.50;;;;;6.64;66.22;99625.22;146614;606;46020;-73
2022/11/24 04:47:26;;;;;;;;;4.75;4.75;;;;;9.49;66.64;100134.50;146611;587;46014;-74
2022/11/24 04:50:23;;;;;;;;;6.00;5.00;;;;;9.45;67.43;100137.78;146615;614;47010;-75
2022/11/24 04:53:25;;;;;;;;;3.00;3.00;;;;;9.46;67.88;100149.03;146612;606;46017;-75
2022/11/24 04:56:36;;;;;;;;;5.75;4.00;;;;;9.49;67.50;100154.34;146617;667;46020;-75
2022/11/24 04:59:37;;;;;;;;;2.50;2.00;;;;;9.48;66.93;100156.03;146610;626;46016;-75
2022/11/24 05:02:33;;;;;;;;;5.25;4.00;;;;;9.45;67.50;100160.19;146617;600;46010;-75
2022/11/24 05:05:29;;;;;;;;;4.50;4.00;;;;;9.40;67.23;100166.84;146608;656;47014;-71
2022/11/24 05:08:32;;;;;;;;;5.00;4.00;;;;;9.35;66.75;100168.34;146610;719;46011;-71
2022/11/24 05:11:31;;;;;;;;;6.25;5.50;;;;;9.29;68.01;100174.12;146613;602;46915;-74
2022/11/24 05:14:33;;;;;;;;;6.00;5.00;;;;;9.25;68.27;100167.91;146618;602;46021;-73
2022/11/24 05:17:47;;;;;;;;;5.75;4.50;;;;;6.30;67.27;99675.84;146612;585;46014;-76
2022/11/24 05:20:40;;;;;;;;;5.50;5.25;;;;;9.18;69.03;100176.19;146616;616;46010;-75
2022/11/24 05:23:51;;;;;;;;;;;;;;;;;;;;;
2022/11/24 05:26:58;;;;;;;;;8.25;7.50;;;;;6.23;67.77;99675.53;146612;577;46916;-75
2022/11/24 05:30:01;;;;;;;;;7.25;7.25;;;;;9.18;68.46;100183.06;146611;578;46013;-71
2022/11/24 05:32:58;;;;;;;;;7.75;6.00;;;;;9.17;68.57;100184.75;146619;575;46020;-71
2022/11/24 05:36:01;;;;;;;;;;;;;;;;;;;;;
2022/11/24 05:39:02;;;;;;;;;8.00;7.00;;;;;9.19;68.59;100187.41;146612;597;46020;-72
2022/11/24 05:45:30;;;;;;;;;7.50;6.50;;;;;9.21;68.90;100194.44;146616;619;46021;-74
2022/11/24 05:48:32;;;;;;;;;6.00;4.75;;;;;9.21;68.72;100197.03;146612;581;46029;-74
2022/11/24 05:51:33;;;;;;;;;7.00;5.00;;;;;9.22;68.99;100193.66;146615;622;46015;-77
2022/11/24 05:54:32;;;;;;;;;7.25;5.75;;;;;9.28;68.90;100197.31;146612;566;47016;-77
2022/11/24 05:57:34;;;;;;;;;5.75;4.75;;;;;9.35;68.78;100199.41;146616;591;46010;-79
2022/11/24 06:00:40;;;;;;;;;7.25;7.25;;;;;9.71;68.80;100198.50;146609;636;46035;-74
2022/11/24 06:03:44;;;;;;;;;6.00;5.25;;;;;10.63;68.04;100176.72;146615;653;47010;-74
2022/11/24 06:06:42;;;;;;;;;9.00;9.00;;;;;11.92;66.80;100197.41;146612;610;46014;-74
2022/11/24 06:09:43;;;;;;;;;10.50;7.00;;;;;13.11;61.60;100194.59;146609;592;46010;-74
2022/11/24 06:12:37;;;;;;;;;5.00;4.25;;;;;14.12;59.81;100197.72;146613;679;46016;-74
2022/11/24 06:15:32;;;;;;;;;8.25;7.25;;;;;15.16;57.75;100199.63;146617;593;47014;-78
2022/11/24 06:18:26;;;;;;;;;6.50;6.50;;;;;16.17;54.16;100204.53;146610;619;48023;-73
2022/11/24 06:21:23;;;;;;;;;6.75;6.00;;;;;17.15;52.10;100197.59;146618;564;46020;-73
2022/11/24 06:24:23;;;;;;;;;6.75;6.00;;;;;17.96;50.39;100206.66;146614;619;46016;-73
2022/11/24 06:27:27;;;;;;;;;6.00;5.25;;;;;16.65;48.66;99862.53;146616;621;46020;-74
2022/11/24 06:30:23;;;;;;;;;12.25;9.00;;;;;19.11;45.86;100211.44;146610;574;46012;-75
2022/11/24 06:33:42;;;;;;;;;12.25;10.75;;;;;19.06;46.37;100217.50;146618;620;45020;-75
2022/11/24 06:36:44;;;;;;;;;16.00;12.00;;;;;18.78;47.00;100211.13;146608;594;47014;-79
2022/11/24 06:39:48;;;;;;;;;12.50;11.25;;;;;18.40;45.20;100211.56;146611;618;46020;-76
2022/11/24 06:43:05;;;;;;;;;18.25;15.50;;;;;16.30;49.20;99957.13;146610;564;46016;-74
2022/11/24 06:45:58;;;;;;;;;16.50;15.00;;;;;17.55;48.94;100220.94;146615;607;46010;-73
2022/11/24 06:49:05;;;;;;;;;22.00;16.50;;;;;17.39;48.27;100203.22;146609;680;46016;-73
2022/11/24 06:52:10;;;;;;;;;26.25;19.75;;;;;17.07;48.93;100181.75;146615;694;47014;-73
2022/11/24 06:55:15;;;;;;;;;12.00;11.75;;;;;17.33;51.54;100221.47;146609;583;46012;-71
2022/11/24 06:58:23;;;;;;;;;9.25;8.75;;;;;17.70;52.59;100222.03;146615;611;46010;-73
2022/11/24 07:01:31;;;;;;;;;9.50;8.00;;;;;18.34;51.12;100225.50;146612;604;46017;-72
2022/11/24 07:04:31;;;;;;;;;4.33;3.00;;;;;18.95;47.31;100214.81;146617;595;47010;-74
2022/11/24 07:07:24;;;;;;;;;2.67;2.67;;;;;19.20;44.52;100229.03;146613;564;46017;-73
2022/11/24 07:10:19;;;;;;;;;4.00;4.00;;;;;19.10;44.59;100221.94;146612;565;46020;-73
2022/11/24 07:13:34;;;;;;;;;4.00;4.00;;;;;18.95;45.82;100222.69;146614;570;46017;-73
2022/11/24 07:16:45;;;;;;;;;4.00;4.00;;;;;18.69;45.11;100225.91;146616;627;47014;-73
2022/11/24 07:19:41;;;;;;;;;6.50;4.75;;;;;18.41;46.24;100227.34;146610;664;46016;-73
2022/11/24 07:22:37;;;;;;;;;7.50;5.00;;;;;18.13;46.45;100228.78;146614;570;46010;-72
2022/11/24 07:25:30;;;;;;;;;6.00;5.75;;;;;17.87;46.75;100235.41;146609;708;46036;-73
2022/11/24 07:28:32;;;;;;;;;3.25;3.25;;;;;17.62;47.62;100234.13;146616;676;46034;-72
2022/11/24 07:31:26;;;;;;;;;5.25;4.00;;;;;17.34;48.32;100235.44;146613;699;46016;-72
2022/11/24 07:34:23;;;;;;;;;6.75;6.75;;;;;17.08;48.33;100241.16;146615;577;46020;-73
2022/11/24 07:37:27;;;;;;;;;5.50;5.00;;;;;16.84;49.27;100246.81;146613;639;46016;-72
2022/11/24 07:40:25;;;;;;;;;5.25;3.25;;;;;16.58;49.72;100228.88;146609;641;47010;-74
2022/11/24 07:43:26;;;;;;;;;3.25;3.25;;;;;16.61;50.22;100255.09;146613;627;46013;-74
2022/11/24 07:46:25;;;;;;;;;6.25;4.50;;;;;16.55;49.65;100254.13;146619;581;45997;-73
2022/11/24 07:49:27;;;;;;;;;2.25;2.25;;;;;13.99;48.46;99817.69;146613;582;46914;-74
2022/11/24 07:52:28;;;;;;;;;2.75;1.00;;;;;16.47;48.18;100256.56;146611;582;46021;-73
2022/11/24 07:55:23;;;;;;;;;0.50;0.50;;;;;16.49;46.95;100254.00;146608;579;47012;-73
2022/11/24 07:58:27;;;;;;;;;;;;;;;;;;;;;
2022/11/24 08:01:21;;;;;;;;;0.00;0.00;;;;;16.70;47.14;100246.56;146615;595;46016;-73
2022/11/24 08:04:14;;;;;;;;;0.67;0.00;;;;;16.82;46.63;100254.66;146615;567;47010;-73
2022/11/24 08:07:10;;;;;;;;;0.00;0.00;;;;;16.96;46.80;100254.03;146610;583;46034;-74
2022/11/24 08:10:05;;;;;;;;;0.67;0.00;;;;;17.06;45.91;100266.44;146630;708;45024;-75
2022/11/24 08:12:57;;;;;;;;;0.00;0.00;;;;;17.08;45.52;100257.75;146633;574;45915;-75
2022/11/24 08:15:52;;;;;;;;;0.00;0.00;;;;;17.10;45.03;100260.38;146637;588;45020;-74
2022/11/24 08:18:48;;;;;;;;;0.00;0.00;;;;;17.11;44.13;100264.78;146635;591;45016;-73
2022/11/24 08:21:54;;;;;;;;;0.00;0.00;;;;;14.73;45.11;99854.94;146639;569;45021;-73
2022/11/24 08:24:52;;;;;;;;;0.00;0.00;;;;;17.16;44.19;100273.56;146636;645;45914;-72
2022/11/24 08:27:45;;;;;;;;;0.00;0.00;;;;;17.21;45.46;100271.94;146628;587;46918;-72
2022/11/24 08:30:37;;;;;;;;;0.33;0.00;;;;;17.26;43.26;100272.91;146634;678;45914;-72
2022/11/24 08:33:29;;;;;;;;;0.00;0.00;;;;;17.35;45.36;100266.03;146637;623;45020;-73
2022/11/24 08:36:22;;;;;;;;;0.00;0.00;;;;;17.43;43.88;100270.53;146635;582;45013;-74
2022/11/24 08:39:14;;;;;;;;;0.00;0.00;;;;;17.44;43.46;100272.28;146631;645;45020;-72
2022/11/24 08:42:07;;;;;;;;;0.00;0.00;;;;;17.48;43.98;100266.28;146635;585;45016;-72
2022/11/24 08:45:16;;;;;;;;;0.00;0.00;;;;;17.53;43.39;100275.06;146637;686;45025;-75
2022/11/24 08:48:15;;;;;;;;;0.00;0.00;;;;;17.52;42.92;100268.06;146634;674;46914;-73
2022/11/24 08:51:16;;;;;;;;;1.00;0.00;;;;;17.60;43.56;100273.47;146635;584;45021;-74
2022/11/24 08:54:14;;;;;;;;;0.00;0.00;;;;;17.70;42.99;100277.09;146635;621;45016;-72
2022/11/24 08:57:17;;;;;;;;;0.00;0.00;;;;;17.81;42.56;100283.41;146633;578;46010;-73
2022/11/24 09:00:21;;;;;;;;;1.00;0.00;;;;;17.90;42.70;100280.03;146634;618;45014;-72
2022/11/24 09:03:19;;;;;;;;;0.00;0.00;;;;;17.93;42.73;100273.09;146638;635;45020;-73
2022/11/24 09:06:13;;;;;;;;;0.00;0.00;;;;;17.94;41.87;100279.19;146631;596;45915;-74
2022/11/24 09:09:10;;;;;;;;;0.33;0.00;;;;;17.97;42.09;100271.37;146616;609;46020;-77
2022/11/24 09:12:17;;;;;;;;;0.00;0.00;;;;;18.05;43.64;100263.63;146611;627;46016;-74
2022/11/24 09:15:19;;;;;;;;;0.00;0.00;;;;;18.12;42.57;100254.97;146618;585;47010;-75
2022/11/24 09:18:13;;;;;;;;;1.00;0.00;;;;;18.18;42.01;100257.69;146611;582;46038;-75
2022/11/24 09:21:28;;;;;;;;;0.00;0.00;;;;;18.18;43.65;100260.31;146616;599;46021;-76
2022/11/24 09:24:26;;;;;;;;;0.00;0.00;;;;;18.20;41.19;100251.59;146612;594;46014;-75
2022/11/24 09:27:28;;;;;;;;;0.00;0.00;;;;;15.80;43.75;99826.44;146617;643;46021;-74
2022/11/24 09:30:22;;;;;;;;;0.00;0.00;;;;;18.30;42.06;100244.72;146612;596;46016;-74
2022/11/24 09:33:22;;;;;;;;;0.00;0.00;;;;;18.36;41.85;100242.16;146617;594;46020;-75
2022/11/24 09:36:26;;;;;;;;;0.00;0.00;;;;;16.04;42.07;99820.69;146611;707;46012;-76
2022/11/24 09:39:19;;;;;;;;;1.00;0.00;;;;;18.54;42.26;100241.50;146606;569;46010;-74
2022/11/24 09:43:05;;;;;;;;;0.00;0.00;;;;;16.22;43.99;99812.25;146613;616;46015;-75
2022/11/24 09:46:26;;;;;;;;;0.00;0.00;;;;;18.88;44.84;100248.03;146613;598;46917;-74
2022/11/24 09:49:48;;;;;;;;;0.00;0.00;;;;;19.08;41.76;100242.06;146614;610;46012;-74
2022/11/24 09:53:14;;;;;;;;;0.00;0.00;;;;;19.28;40.57;100251.00;146618;580;46020;-74
2022/11/24 09:56:39;;;;;;;;;0.67;0.00;;;;;19.26;41.61;100252.75;146613;569;46016;-75
2022/11/24 09:59:49;;;;;;;;;0.00;0.00;;;;;19.20;39.89;100246.56;146619;653;46010;-76
2022/11/24 10:02:55;;;;;;;;;0.00;0.00;;;;;19.14;39.17;100236.84;146616;598;46016;-76
2022/11/24 10:05:51;;;;;;;;;0.00;0.00;;;;;19.06;38.79;100228.91;146619;593;46020;-75
2022/11/24 10:09:12;;;;;;;;;0.00;0.00;;;;;19.02;40.23;100234.13;146613;583;46016;-75
2022/11/24 10:13:01;;;;;;;;;0.00;0.00;;;;;19.07;39.26;100232.44;146605;581;47012;-77
2022/11/24 10:16:09;;;;;;;;;0.00;0.00;;;;;19.15;40.29;100231.59;146612;586;46014;-76
2022/11/24 10:19:42;;;;;;;;;0.00;0.00;;;;;17.05;39.15;99856.06;146615;570;46020;-75
2022/11/24 10:23:24;;;;;;;;;0.00;0.00;;;;;17.50;39.11;99963.09;146615;579;46016;-76
2022/11/24 10:26:49;;;;;;;;;0.00;0.00;;;;;19.26;39.64;100220.31;146616;656;46022;-77
2022/11/24 10:29:45;;;;;;;;;0.00;0.00;;;;;19.33;39.86;100217.72;146612;567;46016;-75
2022/11/24 10:32:52;;;;;;;;;0.00;0.00;;;;;19.45;41.26;100210.81;146619;579;46010;-75
2022/11/24 10:35:57;;;;;;;;;0.00;0.00;;;;;19.56;39.00;100196.87;146610;564;46024;-74
2022/11/24 10:39:22;;;;;;;;;0.00;0.00;;;;;17.18;39.58;99781.09;146617;603;46020;-76
2022/11/24 10:42:42;;;;;;;;;0.00;0.00;;;;;19.54;39.19;100190.72;146610;584;46582;-75
2022/11/24 10:45:57;;;;;;;;;0.67;0.00;;;;;19.48;38.70;100200.31;146605;576;46020;-75
2022/11/24 10:49:33;;;;;;;;;2.00;0.00;;;;;19.43;39.11;100205.53;146612;622;46016;-75
2022/11/24 10:52:32;;;;;;;;;0.00;0.00;;;;;19.41;39.19;100199.41;146615;607;46020;-74
2022/11/24 10:55:24;;;;;;;;;0.00;0.00;;;;;19.46;38.73;100188.91;146611;573;46019;-75
2022/11/24 10:58:29;;;;;;;;;0.00;0.00;;;;;19.54;39.52;100190.72;146617;620;46021;-76
2022/11/24 11:01:36;;;;;;;;;0.00;0.00;;;;;19.66;39.83;100194.31;146611;594;46014;-76
2022/11/24 11:04:43;;;;;;;;;0.00;0.00;;;;;19.76;40.60;100189.13;146618;572;46021;-74
2022/11/24 11:07:37;;;;;;;;;0.00;0.00;;;;;19.85;39.17;100188.28;146609;577;46012;-77
2022/11/24 11:10:28;;;;;;;;;0.00;0.00;;;;;19.90;39.42;100185.66;146617;577;46021;-77
2022/11/24 11:13:29;;;;;;;;;2.00;0.00;;;;;20.04;40.39;100190.13;146613;614;46016;-74
2022/11/24 11:16:56;;;;;;;;;0.00;0.00;;;;;20.33;41.50;100188.47;146612;605;46010;-74
2022/11/24 11:20:06;;;;;;;;;;;;;;;;;;;;;
2022/11/24 11:23:19;;;;;;;;;0.67;0.00;;;;;20.69;37.16;100187.72;146618;586;46020;-74
2022/11/24 11:26:40;;;;;;;;;0.00;0.00;;;;;20.75;38.77;100185.09;146613;579;46013;-75
2022/11/24 11:29:45;;;;;;;;;;;;;;;;;;;;;
2022/11/24 11:32:59;;;;;;;;;0.00;0.00;;;;;18.66;38.25;99805.72;146608;669;47013;-74
2022/11/24 11:36:00;;;;;;;;;0.00;0.00;;;;;20.84;36.37;100184.19;146619;618;46020;-75
2022/11/24 11:39:02;;;;;;;;;0.00;0.00;;;;;20.76;36.16;100192.09;146610;570;46033;-77
2022/11/24 11:42:22;;;;;;;;;;;;;;;;;;;;;
2022/11/24 11:45:42;;;;;;;;;0.00;0.00;;;;;18.09;40.92;99764.34;146612;573;46016;-74
2022/11/24 11:48:58;;;;;;;;;;;;;;;;;;;;;
2022/11/24 11:52:31;;;;;;;;;0.00;0.00;;;;;21.08;40.10;100210.56;146613;590;46016;-75
2022/11/24 11:56:13;;;;;;;;;0.00;0.00;;;;;19.22;41.17;99842.69;146616;684;46021;-74
2022/11/24 11:59:57;;;;;;;;;0.00;0.00;;;;;19.34;39.96;99817.28;146613;571;46016;-75
2022/11/24 12:03:29;;;;;;;;;0.00;0.00;;;;;21.93;39.99;100208.69;146617;662;46010;-73
2022/11/24 12:07:17;;;;;;;;;0.00;0.00;;;;;22.19;39.49;100206.00;146613;627;46016;-75
2022/11/24 12:10:43;;;;;;;;;0.00;0.00;;;;;22.37;38.38;100203.28;146617;698;46021;-75
2022/11/24 12:14:39;;;;;;;;;0.00;0.00;;;;;21.37;39.39;99997.00;146613;600;46012;-75
2022/11/24 12:17:49;;;;;;;;;0.00;0.00;;;;;22.73;38.35;100200.41;146618;595;46021;-76
2022/11/24 12:21:31;;;;;;;;;0.00;0.00;;;;;22.83;38.12;100205.66;146613;611;46014;-75
2022/11/24 12:24:53;;;;;;;;;0.00;0.00;;;;;20.74;38.71;99825.87;146612;684;46020;-76
2022/11/24 12:28:25;;;;;;;;;0.00;0.00;;;;;23.16;38.03;100208.06;146613;587;46016;-76
2022/11/24 12:31:49;;;;;;;;;0.00;0.00;;;;;23.34;38.22;100202.63;146619;573;46020;-77
2022/11/24 12:35:09;;;;;;;;;0.00;0.00;;;;;23.51;37.67;100203.31;146610;582;46012;-76
2022/11/24 12:38:34;;;;;;;;;0.00;0.00;;;;;23.63;37.02;100190.84;146618;690;46010;-76
2022/11/24 12:42:24;;;;;;;;;0.00;0.00;;;;;23.60;38.02;100198.84;146611;564;46016;-74
2022/11/24 12:45:25;;;;;;;;;0.67;0.00;;;;;23.58;36.33;100200.59;146619;588;46010;-75
2022/11/24 12:48:41;;;;;;;;;0.00;0.00;;;;;23.67;37.82;100197.88;146613;578;46915;-77
2022/11/24 12:51:40;;;;;;;;;1.00;0.00;;;;;23.85;35.87;100195.03;146611;586;47010;-75
2022/11/24 12:54:47;;;;;;;;;0.33;0.33;;;;;22.03;37.01;99842.63;146613;624;46017;-75
2022/11/24 12:57:54;;;;;;;;;8.00;6.33;;;;;24.15;36.25;100177.03;146612;620;46020;-75
2022/11/24 13:01:33;;;;;;;;;0.00;0.00;;;;;24.35;37.27;100190.00;146612;679;46012;-75
2022/11/24 13:04:51;;;;;;;;;0.67;0.67;;;;;24.31;36.65;100149.44;146617;576;47014;-77
2022/11/24 13:08:01;;;;;;;;;9.33;8.67;;;;;24.73;37.77;100189.47;146614;576;46016;-76
2022/11/24 13:11:41;;;;;;;;;0.00;0.00;;;;;22.70;37.38;99818.13;146636;634;45021;-75
2022/11/24 13:14:46;;;;;;;;;0.00;0.00;;;;;24.93;33.85;100178.56;146635;580;44016;-76
2022/11/24 13:17:49;;;;;;;;;3.67;0.00;;;;;24.97;33.32;100180.25;146635;665;46010;-76
2022/11/24 13:20:55;;;;;;;;;0.00;0.00;;;;;23.16;36.83;99878.34;146634;572;45914;-75
2022/11/24 13:24:29;;;;;;;;;0.00;0.00;;;;;24.93;36.14;100188.31;146637;594;45030;-76
2022/11/24 13:27:41;;;;;;;;;1.00;1.00;;;;;24.87;36.96;100187.50;146634;569;45016;-76
2022/11/24 13:31:24;;;;;;;;;;;;;;;;;;;;;
2022/11/24 13:35:14;;;;;;;;;0.00;0.00;;;;;22.67;35.52;99802.31;146636;628;45016;-76
2022/11/24 13:38:33;;;;;;;;;1.00;1.00;;;;;24.74;33.18;100183.28;146637;564;45010;-76
2022/11/24 13:42:07;;;;;;;;;0.00;0.00;;;;;24.60;38.12;100188.78;146636;615;45016;-75
2022/11/24 13:45:01;;;;;;;;;0.00;0.00;;;;;24.55;33.73;100182.69;146637;595;45028;-74
2022/11/24 13:48:03;;;;;;;;;1.00;1.00;;;;;24.50;34.05;100186.31;146632;569;45017;-75
2022/11/24 13:51:25;;;;;;;;;0.00;0.00;;;;;21.88;37.98;99765.34;146638;630;45010;-75
2022/11/24 13:54:35;;;;;;;;;0.33;0.33;;;;;24.34;36.38;100194.44;146631;585;46012;-76
2022/11/24 13:58:24;;;;;;;;;0.67;0.67;;;;;22.06;38.83;99809.16;146636;608;46010;-75
2022/11/24 14:01:41;;;;;;;;;0.00;0.00;;;;;24.27;35.16;100200.72;146637;605;45911;-74
2022/11/24 14:04:38;;;;;;;;;1.33;0.33;;;;;24.26;34.03;100195.44;146628;633;45020;-75
2022/11/24 14:07:42;;;;;;;;;1.00;1.00;;;;;24.19;33.99;100198.16;146633;644;45915;-74
2022/11/24 14:10:46;;;;;;;;;2.00;1.00;;;;;24.07;34.99;100194.78;146618;593;47014;-76
2022/11/24 14:13:41;;;;;;;;;1.00;1.00;;;;;23.80;34.50;100201.28;146610;705;46012;-74
2022/11/24 14:16:46;;;;;;;;;1.00;1.00;;;;;23.37;37.20;100202.59;146614;581;46021;-75
2022/11/24 14:19:56;;;;;;;;;22.75;19.75;;;;;22.98;35.32;100202.03;146610;630;46016;-72
2022/11/24 14:23:00;;;;;;;;;11.00;11.00;;;;;22.59;35.74;100208.44;146617;590;47010;-72
2022/11/24 14:25:58;;;;;;;;;31.75;28.75;;;;;22.24;36.00;100208.62;146610;596;46012;-74
2022/11/24 14:28:52;;;;;;;;;13.50;11.75;;;;;21.91;35.36;100214.00;146614;613;46014;-73
2022/11/24 14:31:55;;;;;;;;;5.33;5.00;;;;;21.63;36.56;100212.31;146612;647;46016;-74
2022/11/24 14:34:54;;;;;;;;;2.00;2.00;;;;;21.35;36.91;100211.47;146612;586;46020;-74
2022/11/24 14:37:50;;;;;;;;;2.00;1.00;;;;;21.09;37.32;100208.81;146610;582;47013;-74
2022/11/24 14:41:27;;;;;;;;;9.00;8.00;;;;;18.35;40.36;99788.97;146618;592;46038;-73
2022/11/24 14:44:31;;;;;;;;;0.00;0.00;;;;;20.54;38.89;100217.53;146613;570;46012;-74
2022/11/24 14:47:48;;;;;;;;;4.33;4.33;;;;;17.92;40.83;99809.72;146619;623;46010;-73
2022/11/24 14:51:08;;;;;;;;;2.00;2.00;;;;;20.07;40.40;100216.47;146613;565;46016;-75